This is the latest recevied weather packets stored in our database for station/object IU2EVW-3. If no packets are shown the sender has not sent any weather packets the latest 10 day(s).
| Time | Temp. | Humidity | Pressure | Rain* | Wind** | Luminosity | Snow |
|---|---|---|---|---|---|---|---|
| 1777504725 | 14.44° C | 72% | 1020.7 hPa | - | - | - | - |
| 1777503524 | 14.44° C | 68% | 1021 hPa | - | - | - | - |
| 1777502323 | 15.56° C | 59% | 1020.8 hPa | - | - | - | - |
| 1777501122 | 16.11° C | 56% | 1020.2 hPa | - | - | - | - |
| 1777499921 | 16.11° C | 56% | 1019.7 hPa | - | - | - | - |
| 1777498719 | 16.11° C | 56% | 1019.3 hPa | - | - | - | - |
| 1777497518 | 16.11° C | 56% | 1019 hPa | - | - | - | - |
| 1777496317 | 16.67° C | 55% | 1018.8 hPa | - | - | - | - |
| 1777495116 | 16.67° C | 54% | 1018.9 hPa | - | - | - | - |
| 1777493914 | 16.67° C | 54% | 1018.4 hPa | - | - | - | - |
| 1777492713 | 17.22° C | 55% | 1018.3 hPa | - | - | - | - |
| 1777491512 | 17.22° C | 57% | 1018.1 hPa | - | - | - | - |
| 1777490311 | 17.78° C | 58% | 1017.6 hPa | - | - | - | - |
| 1777489110 | 17.78° C | 58% | 1017.1 hPa | - | - | - | - |
| 1777487908 | 17.78° C | 58% | 1016.9 hPa | - | - | - | - |
| 1777486707 | 18.33° C | 57% | 1016.4 hPa | - | - | - | - |
| 1777485506 | 18.89° C | 56% | 1016.2 hPa | - | - | - | - |
| 1777484305 | 19.44° C | 55% | 1015.8 hPa | - | - | - | - |
| 1777483104 | 20° C | 53% | 1015.7 hPa | - | - | - | - |
| 1777481902 | 21.11° C | 51% | 1015.4 hPa | - | - | - | - |
| 1777480701 | 21.67° C | 50% | 1015.3 hPa | - | - | - | - |
| 1777479500 | 23.33° C | 42% | 1015.1 hPa | - | - | - | - |
| 1777478299 | 23.33° C | 41% | 1015.3 hPa | - | - | - | - |
| 1777477098 | 23.33° C | 41% | 1015.3 hPa | - | - | - | - |
| 1777475897 | 22.78° C | 42% | 1015.5 hPa | - | - | - | - |
* Rain since midnight (hover to see other rain measurements)
** Current wind speed in m/s (hover to see current wind gust speed)